Legend Of The Seas — C6SL5 — position and weather

sailwx.info

Track history (hours):
 
Tides and Currents Weather Stations Pressure Air Temp Water Temp Dewpoint Dewpoint Depression Visibility Wind Speed Wind Dir Waves Ship Positions

Legend Of The Seas

Operator: Royal Caribbean Cruises Ltd

Last reported at 2015-May-14 20:33 UTC. Time now 2015-May-29 21:58 UTC.
Position N 32°23' W 117°10'.
Warning: this ship's position is 15 days out of date.

Type: Passenger vessel. MMSI: 311378000.

Date/timePositionNaut miles runAvg speedWind from/ knotsBaromVisibWave heightAir tempDewpointWater temp
2015-May-14 20:33N 32°23' W 117°10'1616.2
2015-May-14 19:34N 32°39' W 117°14'5 4.5
2015-May-14 18:31N 32°43' W 117°10'0 0.1
2015-May-14 17:31N 32°43' W 117°10'0 0.1
2015-May-14 16:31N 32°43' W 117°10'0 0.1
2015-May-14 15:31N 32°43' W 117°10'0 0.1
2015-May-14 14:31N 32°43' W 117°10'0 0.1
2015-May-14 13:31N 32°43' W 117°10'0 0.1
2015-May-14 12:31N 32°43' W 117°10'0 0.1
2015-May-14 11:31N 32°43' W 117°10'0 0.1
2015-May-14 10:31N 32°43' W 117°10'0 0.1
2015-May-14 09:31N 32°43' W 117°10'1 0.6
2015-May-14 08:33N 32°43' W 117°11'9 9.0
2015-May-14 07:34N 32°35' W 117°16'1413.8
2015-May-14 06:33N 32°22' W 117°20'60 4.2
2015-May-13 16:21N 31°28' W 116°51'1215.2
2015-May-13 15:34N 31°16' W 116°50'  
Track history (hours):
 
Tides and Currents Weather Stations Pressure Air Temp Water Temp Dewpoint Dewpoint Depression Visibility Wind Speed Wind Dir Waves Ship Positions

Legend Of The Seas

Operator: Royal Caribbean Cruises Ltd

Last reported at 2015-May-14 20:33 UTC. Time now 2015-May-29 21:58 UTC.
Position N 32°23' W 117°10'.
Warning: this ship's position is 15 days out of date.

Type: Passenger vessel. MMSI: 311378000.

Date/timePositionNaut miles runAvg speedWind from/ knotsBaromVisibWave heightAir tempDewpointWater temp
2015-May-14 20:33N 32°23' W 117°10'1616.2
2015-May-14 19:34N 32°39' W 117°14'5 4.5
2015-May-14 18:31N 32°43' W 117°10'0 0.1
2015-May-14 17:31N 32°43' W 117°10'0 0.1
2015-May-14 16:31N 32°43' W 117°10'0 0.1
2015-May-14 15:31N 32°43' W 117°10'0 0.1
2015-May-14 14:31N 32°43' W 117°10'0 0.1
2015-May-14 13:31N 32°43' W 117°10'0 0.1
2015-May-14 12:31N 32°43' W 117°10'0 0.1
2015-May-14 11:31N 32°43' W 117°10'0 0.1
2015-May-14 10:31N 32°43' W 117°10'0 0.1
2015-May-14 09:31N 32°43' W 117°10'1 0.6
2015-May-14 08:33N 32°43' W 117°11'9 9.0
2015-May-14 07:34N 32°35' W 117°16'1413.8
2015-May-14 06:33N 32°22' W 117°20'60 4.2
2015-May-13 16:21N 31°28' W 116°51'1215.2
2015-May-13 15:34N 31°16' W 116°50'  

Dump ship's entire track history